Map

Track Data

SID SEASON NUMBER BASIN SUBBASIN NAME ISO_TIME NATURE LAT LON WMO_WIND WMO_PRES WMO_AGENCY TRACK_TYPE DIST2LAND LANDFALL IFLAG USA_AGENCY USA_ATCF_ID USA_LAT USA_LON USA_RECORD USA_STATUS USA_WIND USA_PRES USA_SSHS USA_R34_NE USA_R34_SE USA_R34_SW USA_R34_NW USA_R50_NE USA_R50_SE USA_R50_SW USA_R50_NW USA_R64_NE USA_R64_SE USA_R64_SW USA_R64_NW USA_POCI USA_ROCI USA_RMW USA_EYE TOKYO_LAT TOKYO_LON TOKYO_GRADE TOKYO_WIND TOKYO_PRES TOKYO_R50_DIR TOKYO_R50_LONG TOKYO_R50_SHORT TOKYO_R30_DIR TOKYO_R30_LONG TOKYO_R30_SHORT TOKYO_LAND CMA_LAT CMA_LON CMA_CAT CMA_WIND CMA_PRES HKO_LAT HKO_LON HKO_CAT HKO_WIND HKO_PRES NEWDELHI_LAT NEWDELHI_LON NEWDELHI_GRADE NEWDELHI_WIND NEWDELHI_PRES NEWDELHI_CI NEWDELHI_DP NEWDELHI_POCI REUNION_LAT REUNION_LON REUNION_TYPE REUNION_WIND REUNION_PRES REUNION_TNUM REUNION_CI REUNION_RMW REUNION_R34_NE REUNION_R34_SE REUNION_R34_SW REUNION_R34_NW REUNION_R50_NE REUNION_R50_SE REUNION_R50_SW REUNION_R50_NW REUNION_R64_NE REUNION_R64_SE REUNION_R64_SW REUNION_R64_NW BOM_LAT BOM_LON BOM_TYPE BOM_WIND BOM_PRES BOM_TNUM BOM_CI BOM_RMW BOM_R34_NE BOM_R34_SE BOM_R34_SW BOM_R34_NW BOM_R50_NE BOM_R50_SE BOM_R50_SW BOM_R50_NW BOM_R64_NE BOM_R64_SE BOM_R64_SW BOM_R64_NW BOM_ROCI BOM_POCI BOM_EYE BOM_POS_METHOD BOM_PRES_METHOD NADI_LAT NADI_LON NADI_CAT NADI_WIND NADI_PRES WELLINGTON_LAT WELLINGTON_LON WELLINGTON_WIND WELLINGTON_PRES DS824_LAT DS824_LON DS824_STAGE DS824_WIND DS824_PRES TD9636_LAT TD9636_LON TD9636_STAGE TD9636_WIND TD9636_PRES TD9635_LAT TD9635_LON TD9635_WIND TD9635_PRES TD9635_ROCI NEUMANN_LAT NEUMANN_LON NEUMANN_CLASS NEUMANN_WIND NEUMANN_PRES MLC_LAT MLC_LON MLC_CLASS MLC_WIND MLC_PRES USA_GUST BOM_GUST BOM_GUST_PER REUNION_GUST REUNION_GUST_PER USA_SEAHGT USA_SEARAD_NE USA_SEARAD_SE USA_SEARAD_SW USA_SEARAD_NW STORM_SPEED STORM_DIR
1949194N19086 1949 43 NI BB NOT_NAMED 1949-07-12 18:00:00 TS 18.8000 85.9000 main 103 103 O________O____ jtwc_io IO061949 18.8000 85.9000 -1 18.8000 85.9000 TC 2 68
1949194N19086 1949 43 NI BB NOT_NAMED 1949-07-12 21:00:00 TS 18.8325 85.9875 main 109 100 P________P____ IO061949 18.8325 85.9875 -1 18.8325 85.9875 TC 2 62
1949194N19086 1949 43 NI BB NOT_NAMED 1949-07-13 00:00:00 TS 18.9000 86.1000 main 105 98 O________O____ jtwc_io IO061949 18.9000 86.1000 -1 18.9000 86.1000 TC 25 3 54
1949194N19086 1949 43 NI BB NOT_NAMED 1949-07-13 03:00:00 TS 19.0244 86.2667 main 102 88 P________PO___ IO061949 19.0274 86.2626 -1 19.0274 86.2626 TC 25 19.0000 86.3000 1 5 54
1949194N19086 1949 43 NI BB NOT_NAMED 1949-07-13 06:00:00 TS 19.1933 86.5302 main 88 79 O________OP___ jtwc_io IO061949 19.2000 86.5000 -1 19.2000 86.5000 TC 25 19.1664 86.6507 1 7 59
1949194N19086 1949 43 NI BB NOT_NAMED 1949-07-13 09:00:00 TS 19.3745 86.8885 main 85 84 P________PP___ IO061949 19.3852 86.8574 -1 19.3852 86.8574 TC 25 19.3459 86.9715 1 8 59
1949194N19086 1949 43 NI BB NOT_NAMED 1949-07-13 12:00:00 TS 19.5841 87.2105 main 94 91 O________OP___ jtwc_io IO061949 19.6000 87.2000 -1 19.6000 87.2000 TC 25 19.5524 87.2315 1 7 48
1949194N19086 1949 43 NI BB NOT_NAMED 1949-07-13 15:00:00 TS 19.8233 87.4116 main 92 83 P________PO___ IO061949 19.8349 87.4175 -1 19.8349 87.4175 TC 25 19.8000 87.4000 1 6 27
1949194N19086 1949 43 NI BB NOT_NAMED 1949-07-13 18:00:00 TS 20.0979 87.4849 main 83 53 O________OP___ jtwc_io IO061949 20.1000 87.5000 -1 20.1000 87.5000 TC 25 20.0937 87.4547 1 6 0
1949194N19086 1949 43 NI BB NOT_NAMED 1949-07-13 21:00:00 TS 20.4107 87.4379 main 53 31 P________PP___ IO061949 20.4150 87.4527 -1 20.4150 87.4527 TC 25 20.4020 87.4084 1 6 343
1949194N19086 1949 43 NI BB NOT_NAMED 1949-07-14 00:00:00 TS 20.6948 87.2943 main 31 15 O________OP___ jtwc_io IO061949 20.7000 87.3000 -1 20.7000 87.3000 TC 25 20.6844 87.2828 1 6 328
1949194N19086 1949 43 NI BB NOT_NAMED 1949-07-14 03:00:00 TS 20.8967 87.1150 main 15 10 P________PO___ IO061949 20.8950 87.1225 -1 20.8950 87.1225 TC 25 20.9000 87.1000 1 5 310
1949194N19086 1949 43 NI BB NOT_NAMED 1949-07-14 06:00:00 TS 20.9976 86.9041 main 10 0 O________OP___ jtwc_io IO061949 21.0000 86.9000 -1 21.0000 86.9000 TC 25 20.9928 86.9122 1 4 287
1949194N19086 1949 43 NI BB NOT_NAMED 1949-07-14 09:00:00 TS 21.0208 86.6681 main 0 0 P________PP___ IO061949 21.0225 86.6649 -1 21.0225 86.6649 TC 25 21.0175 86.6745 1 5 271
1949194N19086 1949 43 NI BB NOT_NAMED 1949-07-14 12:00:00 TS 21.0028 86.3999 main 0 0 O________OP___ jtwc_io IO061949 21.0000 86.4000 -1 21.0000 86.4000 TC 25 21.0084 86.3996 1 5 267
1949194N19086 1949 43 NI BB NOT_NAMED 1949-07-14 15:00:00 TS 20.9950 86.1050 main 0 0 P________PO___ IO061949 20.9925 86.1075 -1 20.9925 86.1075 TC 25 21.0000 86.1000 1 6 271
1949194N19086 1949 43 NI BB NOT_NAMED 1949-07-14 18:00:00 TS 21.0078 85.7945 main 0 0 O________OP___ jtwc_io IO061949 21.0000 85.8000 -1 21.0000 85.8000 TC 25 21.0196 85.7863 1 6 275
1949194N19086 1949 43 NI BB NOT_NAMED 1949-07-14 21:00:00 TS 21.0510 85.4828 main 0 0 P________PP___ IO061949 21.0401 85.4976 -1 21.0401 85.4976 TC 25 21.0655 85.4631 1 6 280
1949194N19086 1949 43 NI BB NOT_NAMED 1949-07-15 00:00:00 TS 21.1143 85.1666 main 0 0 O________OP___ jtwc_io IO061949 21.1000 85.2000 -1 21.1000 85.2000 TC 25 21.1286 85.1333 1 7 283
1949194N19086 1949 43 NI BB NOT_NAMED 1949-07-15 03:00:00 NR 21.2000 84.8000 main 0 __________O___ IO061949 -1 TC 21.2000 84.8000 1 7 284

About IBTrACS Database

This database is a web-friendly format of International Best Track Archive for Climate Stewardship (IBTrACS), a global best track data archive curated by NOAA dating back to 1842.

Updated: 2021-11-26